Mariposa, CA (95338)

11:49 PM PST on December 17, 2014 (GMT -0800)
Mariposa Fairgrounds | Change Station
CLOSE
Current Station
Personal Weather Station
Location: Mariposa, CA
Elevation: 1851 ft
Nearby Weather Stations

Elev 1851 ft 37.47 °N, 119.95 °W | Updated 2 minutes ago

Overcast
Overcast
41.3 °F
Feels Like 41 °F
N
0.0
Wind Variable Wind from SSE
Gusts 0.0 mph

Today
High -- | Low -- °F
--% Chance of Precip.
Yesterday
High -- | Low -- °F
Precip. -- in
7:08 AM 4:43 PM
Waning Crescent, 16% visible
Pressure 30.10 in
Visibility 7.0 miles
Clouds Scattered Clouds 6000 ft
Overcast 7000 ft
Windchill 41 °F
Dew Point 40 °F
Humidity 97%
Rainfall 1.01 in
Snow Depth Not available.
UV 0 out of 12
Pollen .20 out of 12
Air Quality Not available.
Flu Activity Not available.
METAR KO22 180735Z AUTO 00000KT 7SM SCT060 OVC070 05/05 A3010 RMK AO1

More Conditions Fewer Conditions

Pressure 30.10 in
Visibility 7.0 miles
Clouds Scattered Clouds 6000 ft
Overcast 7000 ft
Windchill 41 °F
Dew Point 40 °F
Humidity 97%
Rainfall 1.01 in
Snow Depth Not available.
UV 0 out of 12
Pollen .20 out of 12
Air Quality Not available.
Flu Activity Not available.
METAR KO22 180735Z AUTO 00000KT 7SM SCT060 OVC070 05/05 A3010 RMK AO1

More Conditions Fewer Conditions

10-Day Weather Forecast

Almanac

Astronomy

Dec. 17, 2014 Rise Set
Actual Time
Civil Twilight
Nautical Twilight
Astronomical Twilight
Moon
Length of Visible Light
Length of Day
Tomorrow will be .
, % of the Moon is Illuminated

Today's Extremes

State Highs State Lows

Community

WunderPhotos

Upload Photos

1,778,900 photos uploaded!

WunderBlogs® & News

Nearby

Air Quality

  Air Quality AQ Index Pollutant
Not available.

Snow Depth

Station Depth Elevation

Earthquake Activity

City Distance Mag. Time & Date
Minimum magnitude displayed is 2.5.

Coastal Water Temperatures

Place Temperature

Nearby Weather Stations